createdAt,value
2018-01-10T00:00:10.492Z,3.90
2018-01-10T00:02:38.675Z,4.70
2018-01-10T00:05:06.838Z,4.17
2018-01-10T00:07:35.060Z,4.13
2018-01-10T00:10:03.803Z,4.17
2018-01-10T00:12:32.421Z,5.10
2018-01-10T00:15:01.447Z,4.70
2018-01-10T00:17:29.618Z,4.20
2018-01-10T00:19:57.894Z,4.97
2018-01-10T00:22:26.063Z,4.20
2018-01-10T00:24:55.311Z,4.37
2018-01-10T00:27:23.466Z,4.27
2018-01-10T00:29:51.672Z,4.27
2018-01-10T00:32:19.870Z,4.20
2018-01-10T00:34:48.906Z,4.20
2018-01-10T00:37:17.067Z,4.67
2018-01-10T00:39:45.219Z,4.43
2018-01-10T00:42:14.246Z,4.07
2018-01-10T00:44:42.453Z,4.53
2018-01-10T00:47:10.633Z,4.70
2018-01-10T00:49:38.791Z,4.37
2018-01-10T00:52:07.056Z,4.10
2018-01-10T00:54:35.215Z,4.13
2018-01-10T00:57:03.379Z,3.73
2018-01-10T00:59:31.551Z,3.90
2018-01-10T01:01:59.709Z,4.47
2018-01-10T01:04:28.628Z,4.93
2018-01-10T01:06:56.795Z,4.50
2018-01-10T01:09:24.998Z,4.30
2018-01-10T01:11:53.419Z,4.27
2018-01-10T01:14:21.613Z,4.57
2018-01-10T01:16:50.562Z,4.03
2018-01-10T01:19:18.769Z,3.90
2018-01-10T01:21:47.754Z,4.17
2018-01-10T01:24:15.916Z,3.93
2018-01-10T01:26:45.005Z,4.20
2018-01-10T01:29:13.371Z,4.50
2018-01-10T01:31:41.741Z,4.67
2018-01-10T01:34:10.033Z,4.07
2018-01-10T01:36:39.213Z,3.67
2018-01-10T01:39:07.385Z,4.13
2018-01-10T01:41:35.562Z,3.73
2018-01-10T01:44:04.612Z,4.27
2018-01-10T01:46:33.592Z,4.27
2018-01-10T01:49:01.767Z,4.40
2018-01-10T01:51:29.923Z,3.90
2018-01-10T01:53:57.911Z,3.73
2018-01-10T01:56:26.133Z,4.57
2018-01-10T01:58:54.246Z,3.90
2018-01-10T02:01:22.517Z,3.77
2018-01-10T02:03:50.726Z,4.53
2018-01-10T02:06:19.650Z,3.70
2018-01-10T02:08:47.955Z,3.80
2018-01-10T02:11:16.118Z,4.20
2018-01-10T02:13:44.571Z,4.30
2018-01-10T02:16:12.715Z,4.13
2018-01-10T02:18:41.063Z,3.80
2018-01-10T02:21:09.289Z,3.97
2018-01-10T02:23:38.222Z,3.80
2018-01-10T02:26:06.384Z,3.83
2018-01-10T02:28:34.565Z,4.23
2018-01-10T02:31:02.944Z,4.90
2018-01-10T02:33:31.123Z,4.13
2018-01-10T02:35:59.363Z,3.63
2018-01-10T02:38:27.506Z,3.60
2018-01-10T02:40:55.740Z,3.50
2018-01-10T02:43:23.911Z,3.97
2018-01-10T02:45:52.078Z,4.00
2018-01-10T02:48:20.294Z,4.90
2018-01-10T02:50:48.603Z,3.60
2018-01-10T02:53:16.785Z,3.63
2018-01-10T02:55:45.035Z,4.27
2018-01-10T02:58:13.215Z,4.20
2018-01-10T03:00:42.211Z,3.57
2018-01-10T03:03:11.199Z,3.57
2018-01-10T03:05:39.482Z,4.10
2018-01-10T03:08:08.706Z,4.23
2018-01-10T03:10:36.933Z,4.10
2018-01-10T03:13:05.248Z,3.70
2018-01-10T03:15:34.205Z,4.10
2018-01-10T03:18:02.422Z,3.70
2018-01-10T03:20:31.432Z,3.90
2018-01-10T03:22:59.898Z,3.93
2018-01-10T03:25:28.085Z,3.77
2018-01-10T03:27:56.675Z,3.37
2018-01-10T03:30:24.835Z,3.50
2018-01-10T03:32:53.022Z,4.33
2018-01-10T03:35:22.042Z,3.70
2018-01-10T03:37:50.193Z,3.73
2018-01-10T03:40:18.380Z,3.97
2018-01-10T03:42:46.586Z,3.47
2018-01-10T03:45:14.736Z,3.50
2018-01-10T03:47:42.929Z,3.80
2018-01-10T03:50:11.139Z,3.17
2018-01-10T03:52:40.071Z,4.07
2018-01-10T03:55:08.250Z,3.47
2018-01-10T03:57:36.473Z,3.57
2018-01-10T04:00:05.405Z,4.07
2018-01-10T04:02:33.659Z,3.57
2018-01-10T04:05:01.823Z,3.50
2018-01-10T04:07:30.009Z,3.90
2018-01-10T04:09:58.166Z,3.70
2018-01-10T04:12:27.081Z,3.70
2018-01-10T04:14:55.957Z,3.70
2018-01-10T04:17:25.005Z,4.43
2018-01-10T04:19:53.319Z,3.53
2018-01-10T04:22:22.272Z,4.23
2018-01-10T04:24:50.444Z,3.90
2018-01-10T04:27:18.662Z,3.47
2018-01-10T04:29:47.658Z,3.87
2018-01-10T04:32:16.661Z,4.20
2018-01-10T04:34:45.623Z,3.40
2018-01-10T04:37:14.054Z,4.10
2018-01-10T04:39:42.202Z,4.03
2018-01-10T04:42:11.174Z,4.00
2018-01-10T04:44:39.332Z,3.27
2018-01-10T04:47:07.502Z,3.60
2018-01-10T04:49:35.679Z,3.80
2018-01-10T04:52:04.238Z,3.70
2018-01-10T04:54:32.654Z,3.17
2018-01-10T04:57:00.836Z,3.50
2018-01-10T04:59:28.999Z,3.53
2018-01-10T05:01:57.305Z,3.57
2018-01-10T05:04:26.234Z,4.20
2018-01-10T05:06:54.435Z,3.63
2018-01-10T05:09:22.651Z,4.00
2018-01-10T05:11:51.605Z,3.63
2018-01-10T05:14:19.770Z,3.77
2018-01-10T05:16:47.927Z,4.37
2018-01-10T05:19:16.355Z,4.17
2018-01-10T05:21:45.293Z,3.73
2018-01-10T05:24:13.482Z,3.70
2018-01-10T05:26:41.656Z,3.40
2018-01-10T05:29:09.814Z,3.63
2018-01-10T05:31:37.990Z,3.50
2018-01-10T05:34:06.156Z,3.50
2018-01-10T05:36:34.354Z,3.57
2018-01-10T05:39:02.680Z,3.33
2018-01-10T05:41:31.706Z,3.40
2018-01-10T05:43:59.913Z,3.30
2018-01-10T05:46:28.061Z,3.67
2018-01-10T05:48:56.519Z,3.13
2018-01-10T05:51:24.705Z,3.73
2018-01-10T05:53:52.883Z,3.03
2018-01-10T05:56:21.111Z,3.40
2018-01-10T05:58:49.278Z,3.97
2018-01-10T06:01:17.434Z,3.60
2018-01-10T06:03:45.618Z,3.90
2018-01-10T06:06:13.801Z,3.57
2018-01-10T06:08:41.745Z,3.70
2018-01-10T06:11:09.907Z,3.50
2018-01-10T06:13:38.058Z,3.87
2018-01-10T06:16:06.330Z,4.43
2018-01-10T06:18:35.259Z,3.53
2018-01-10T06:21:03.551Z,3.23
2018-01-10T06:23:31.848Z,3.77
2018-01-10T06:26:00.041Z,3.27
2018-01-10T06:28:28.353Z,4.00
2018-01-10T06:30:56.545Z,4.63
2018-01-10T06:33:24.737Z,3.10
2018-01-10T06:35:53.030Z,3.37
2018-01-10T06:38:22.013Z,3.40
2018-01-10T06:40:50.261Z,3.40
2018-01-10T06:43:18.426Z,3.90
2018-01-10T06:45:46.681Z,3.90
2018-01-10T06:48:14.908Z,3.60
2018-01-10T06:50:43.080Z,3.20
2018-01-10T06:53:11.261Z,3.33
2018-01-10T06:55:39.476Z,3.47
2018-01-10T06:58:07.657Z,3.33
2018-01-10T07:00:35.821Z,3.63
2018-01-10T07:03:04.774Z,3.23
2018-01-10T07:05:32.913Z,4.00
2018-01-10T07:08:01.090Z,3.20
2018-01-10T07:10:29.278Z,3.13
2018-01-10T07:12:57.439Z,3.23
2018-01-10T07:15:25.727Z,3.30
2018-01-10T07:17:54.045Z,3.40
2018-01-10T07:20:22.306Z,3.10
2018-01-10T07:22:50.496Z,3.13
2018-01-10T07:25:18.652Z,3.67
2018-01-10T07:27:46.818Z,3.20
2018-01-10T07:30:15.028Z,3.33
2018-01-10T07:32:43.955Z,3.20
2018-01-10T07:35:12.187Z,3.60
2018-01-10T07:37:40.526Z,3.73
2018-01-10T07:40:08.690Z,2.93
2018-01-10T07:42:36.926Z,3.83
2018-01-10T07:45:05.960Z,3.80
2018-01-10T07:47:34.211Z,3.53
2018-01-10T07:50:02.399Z,2.70
2018-01-10T07:52:30.578Z,3.83
2018-01-10T07:54:58.721Z,3.60
2018-01-10T07:57:27.755Z,3.43
2018-01-10T07:59:55.975Z,3.27
2018-01-10T08:02:24.925Z,4.07
2018-01-10T08:04:53.328Z,3.50
2018-01-10T08:07:21.523Z,3.43
2018-01-10T08:09:49.695Z,3.57
2018-01-10T08:12:17.896Z,3.57
2018-01-10T08:14:46.848Z,3.70
2018-01-10T08:17:15.199Z,3.47
2018-01-10T08:19:43.471Z,4.03
2018-01-10T08:22:11.634Z,3.53
2018-01-10T08:24:39.825Z,3.50
2018-01-10T08:27:08.059Z,3.40
2018-01-10T08:29:37.060Z,3.10
2018-01-10T08:32:05.240Z,3.53
2018-01-10T08:34:33.475Z,3.23
2018-01-10T08:37:01.690Z,3.60
2018-01-10T08:39:30.630Z,2.83
2018-01-10T08:41:58.821Z,2.70
2018-01-10T08:44:27.005Z,3.87
2018-01-10T08:46:55.183Z,3.60
2018-01-10T08:49:24.126Z,3.40
2018-01-10T08:51:52.343Z,3.50
2018-01-10T08:54:20.584Z,3.40
2018-01-10T08:56:48.780Z,2.83
2018-01-10T08:59:16.949Z,3.10
2018-01-10T09:01:45.303Z,3.33
2018-01-10T09:04:13.529Z,3.07
2018-01-10T09:06:41.708Z,3.13
2018-01-10T09:09:10.710Z,3.30
2018-01-10T09:11:38.978Z,3.30
2018-01-10T09:14:07.942Z,2.97
2018-01-10T09:16:36.252Z,3.60
2018-01-10T09:19:05.230Z,2.83
2018-01-10T09:21:33.498Z,3.10
2018-01-10T09:24:01.678Z,3.20
2018-01-10T09:26:30.060Z,3.33
2018-01-10T09:28:58.387Z,2.97
2018-01-10T09:31:26.544Z,3.10
2018-01-10T09:33:56.217Z,3.40
2018-01-10T09:36:24.408Z,2.67
2018-01-10T09:38:53.374Z,2.97
2018-01-10T09:41:21.576Z,3.43
2018-01-10T09:43:50.581Z,3.20
2018-01-10T09:46:19.610Z,3.03
2018-01-10T09:48:47.782Z,2.90
2018-01-10T09:51:16.008Z,3.20
2018-01-10T09:53:44.175Z,3.40
2018-01-10T09:56:12.376Z,3.13
2018-01-10T09:58:41.398Z,3.17
2018-01-10T10:01:09.614Z,3.57
2018-01-10T10:03:37.863Z,2.97
2018-01-10T10:06:06.250Z,2.50
2018-01-10T10:08:34.432Z,2.53
2018-01-10T10:11:02.631Z,2.80
2018-01-10T10:13:31.727Z,2.93
2018-01-10T10:15:59.879Z,3.60
2018-01-10T10:18:28.052Z,3.03
2018-01-10T10:20:56.232Z,2.67
2018-01-10T10:23:24.730Z,2.97
2018-01-10T10:25:52.930Z,2.93
2018-01-10T10:28:21.903Z,2.50
2018-01-10T10:30:51.178Z,2.70
2018-01-10T10:33:19.559Z,2.87
2018-01-10T10:35:47.861Z,3.27
2018-01-10T10:38:16.998Z,3.27
2018-01-10T10:40:45.196Z,3.37
2018-01-10T10:43:13.368Z,2.70
2018-01-10T10:45:41.405Z,2.43
2018-01-10T10:48:09.612Z,3.13
2018-01-10T10:50:37.793Z,2.30
2018-01-10T10:53:05.992Z,3.20
2018-01-10T10:55:34.172Z,2.63
2018-01-10T10:58:02.350Z,2.60
2018-01-10T11:00:31.195Z,3.43
2018-01-10T11:02:59.428Z,2.90
2018-01-10T11:05:28.412Z,2.63
2018-01-10T11:07:57.358Z,2.90
2018-01-10T11:10:25.546Z,2.67
2018-01-10T11:12:53.719Z,2.67
2018-01-10T11:15:21.936Z,2.40
2018-01-10T11:17:50.920Z,2.67
2018-01-10T11:20:19.075Z,3.00
2018-01-10T11:22:47.582Z,2.90
2018-01-10T11:25:16.523Z,2.80
2018-01-10T11:27:44.284Z,2.73
2018-01-10T11:30:12.532Z,3.00
2018-01-10T11:32:41.559Z,2.97
2018-01-10T11:35:09.786Z,2.73
2018-01-10T11:37:38.741Z,2.90
2018-01-10T11:40:07.051Z,2.93
2018-01-10T11:42:36.062Z,2.37
2018-01-10T11:45:04.243Z,2.70
2018-01-10T11:47:32.446Z,2.50
2018-01-10T11:50:01.496Z,2.47
2018-01-10T11:52:30.449Z,2.77
2018-01-10T11:54:58.656Z,2.30
2018-01-10T11:57:27.644Z,3.00
2018-01-10T11:59:56.624Z,2.90
2018-01-10T12:02:25.015Z,2.90
2018-01-10T12:04:54.010Z,2.63
2018-01-10T12:07:23.008Z,3.03
2018-01-10T12:09:51.966Z,3.20
2018-01-10T12:12:20.178Z,2.80
2018-01-10T12:14:49.137Z,2.50
2018-01-10T12:17:17.514Z,2.23
2018-01-10T12:19:45.735Z,2.60
2018-01-10T12:22:14.740Z,2.40
2018-01-10T12:24:42.929Z,2.50
2018-01-10T12:27:11.124Z,2.33
2018-01-10T12:29:39.289Z,2.67
2018-01-10T12:32:07.691Z,3.00
2018-01-10T12:34:36.082Z,2.93
2018-01-10T12:37:04.244Z,3.07
2018-01-10T12:39:32.483Z,2.40
2018-01-10T12:42:00.694Z,2.80
2018-01-10T12:44:28.885Z,2.70
2018-01-10T12:46:57.149Z,2.97
2018-01-10T12:49:25.351Z,3.00
2018-01-10T12:51:54.303Z,2.23
2018-01-10T12:54:22.519Z,2.77
2018-01-10T12:56:51.505Z,2.80
2018-01-10T12:59:19.695Z,2.17
2018-01-10T13:01:48.671Z,2.17
2018-01-10T13:04:17.015Z,2.60
2018-01-10T13:06:45.264Z,2.63
2018-01-10T13:09:14.618Z,2.83
2018-01-10T13:11:42.780Z,2.57
2018-01-10T13:14:10.969Z,2.27
2018-01-10T13:16:39.130Z,2.57
2018-01-10T13:19:07.516Z,2.10
2018-01-10T13:21:35.949Z,2.80
2018-01-10T13:24:04.138Z,2.83
2018-01-10T13:26:32.762Z,2.63
2018-01-10T13:29:01.328Z,2.50
2018-01-10T13:31:29.790Z,2.67
2018-01-10T13:33:58.014Z,3.30
2018-01-10T13:36:27.082Z,3.20
2018-01-10T13:38:55.262Z,2.47
2018-01-10T13:41:23.491Z,2.23
2018-01-10T13:43:51.814Z,2.00
2018-01-10T13:46:20.231Z,2.70
2018-01-10T13:48:48.729Z,3.00
2018-01-10T13:51:17.086Z,2.40
2018-01-10T13:53:46.263Z,2.50
2018-01-10T13:56:15.264Z,2.13
2018-01-10T13:58:44.261Z,2.73
2018-01-10T14:01:13.371Z,2.57
2018-01-10T14:03:42.423Z,2.13
2018-01-10T14:06:10.721Z,2.03
2018-01-10T14:08:39.904Z,2.40
2018-01-10T14:11:08.252Z,2.37
2018-01-10T14:13:37.354Z,2.50
2018-01-10T14:16:06.007Z,2.43
2018-01-10T14:18:34.269Z,2.63
2018-01-10T14:21:03.461Z,2.50
2018-01-10T14:23:31.744Z,2.20
2018-01-10T14:26:00.760Z,2.27
2018-01-10T14:28:29.127Z,2.20
2018-01-10T14:30:58.149Z,2.50
2018-01-10T14:33:27.063Z,2.40
2018-01-10T14:35:55.468Z,2.20
2018-01-10T14:38:23.758Z,2.50
2018-01-10T14:40:53.172Z,2.23
2018-01-10T14:43:22.343Z,2.17
2018-01-10T14:45:50.546Z,2.40
2018-01-10T14:48:19.936Z,2.80
2018-01-10T14:50:49.069Z,2.37
2018-01-10T14:53:17.308Z,2.27
2018-01-10T14:55:47.556Z,2.87
2018-01-10T14:58:15.724Z,2.50
2018-01-10T15:00:44.677Z,2.20
2018-01-10T15:03:14.093Z,2.00
2018-01-10T15:05:42.318Z,2.50
2018-01-10T15:08:10.502Z,2.67
2018-01-10T15:10:38.733Z,2.53
2018-01-10T15:13:07.695Z,1.90
2018-01-10T15:15:35.919Z,2.50
2018-01-10T15:18:04.093Z,2.20
2018-01-10T15:20:32.281Z,2.07
2018-01-10T15:23:00.617Z,2.40
2018-01-10T15:25:29.080Z,2.00
2018-01-10T15:27:57.924Z,2.30
2018-01-10T15:30:26.201Z,2.10
2018-01-10T15:32:54.386Z,2.20
2018-01-10T15:35:22.614Z,2.60
2018-01-10T15:37:51.600Z,2.20
2018-01-10T15:40:19.770Z,1.93
2018-01-10T15:42:47.959Z,2.57
2018-01-10T15:45:16.270Z,2.30
2018-01-10T15:47:44.458Z,2.50
2018-01-10T15:50:12.654Z,1.80
2018-01-10T15:52:40.902Z,2.50
2018-01-10T15:55:09.200Z,2.47
2018-01-10T15:57:37.394Z,2.47
2018-01-10T16:00:05.614Z,2.40
2018-01-10T16:02:34.578Z,2.37
2018-01-10T16:05:02.754Z,2.30
2018-01-10T16:07:31.036Z,2.10
2018-01-10T16:10:00.925Z,1.97
2018-01-10T16:12:29.249Z,2.20
2018-01-10T16:14:57.481Z,2.07
2018-01-10T16:17:25.760Z,2.50
2018-01-10T16:19:54.024Z,2.37
2018-01-10T16:22:22.190Z,2.50
2018-01-10T16:24:50.418Z,2.10
2018-01-10T16:27:19.565Z,2.30
2018-01-10T16:29:48.140Z,2.40
2018-01-10T16:32:16.360Z,2.13
2018-01-10T16:34:44.614Z,2.30
2018-01-10T16:37:12.791Z,2.53
2018-01-10T16:39:41.054Z,2.30
2018-01-10T16:42:09.239Z,2.30
2018-01-10T16:44:38.844Z,2.33
2018-01-10T16:47:07.128Z,2.13
2018-01-10T16:49:35.303Z,2.53
2018-01-10T16:52:03.474Z,2.10
2018-01-10T16:54:31.648Z,2.40
2018-01-10T16:57:00.094Z,1.80
2018-01-10T16:59:28.254Z,2.17
2018-01-10T17:01:57.330Z,2.23
2018-01-10T17:04:25.714Z,2.23
2018-01-10T17:06:54.863Z,2.60
2018-01-10T17:09:23.050Z,2.30
2018-01-10T17:11:51.321Z,1.93
2018-01-10T17:14:19.538Z,1.60
2018-01-10T17:16:48.492Z,2.00
2018-01-10T17:19:16.677Z,1.93
2018-01-10T17:21:44.937Z,2.30
2018-01-10T17:24:13.166Z,1.80
2018-01-10T18:11:48.307Z,29.37
2018-01-10T18:14:17.259Z,17.27
2018-01-10T18:16:45.446Z,20.17
2018-01-10T18:19:13.867Z,18.13
2018-01-10T18:21:42.465Z,17.97
2018-01-10T18:24:12.556Z,23.27
2018-01-10T18:26:50.594Z,20.83
2018-01-10T18:29:20.310Z,25.97
2018-01-10T18:31:49.603Z,32.90
2018-01-10T18:34:18.911Z,20.50
2018-01-10T18:36:48.230Z,21.23
2018-01-10T18:39:17.656Z,28.03
2018-01-10T18:41:49.113Z,25.53
2018-01-10T18:44:18.179Z,27.27
2018-01-10T18:46:47.461Z,24.07
2018-01-10T18:49:16.957Z,19.97
2018-01-10T18:51:46.268Z,25.43
2018-01-10T18:54:15.551Z,21.17
2018-01-10T18:56:44.843Z,18.07
2018-01-10T18:59:14.941Z,19.43
2018-01-10T19:01:45.205Z,16.60
2018-01-10T19:04:14.491Z,17.60
2018-01-10T19:06:43.778Z,21.60
2018-01-10T19:09:14.025Z,24.00
2018-01-10T19:11:43.296Z,19.27
2018-01-10T19:14:13.420Z,23.50
2018-01-10T19:16:45.648Z,15.73
2018-01-10T19:19:14.934Z,27.27
2018-01-10T19:21:44.197Z,23.20
2018-01-10T19:24:15.014Z,27.07
2018-01-10T19:26:45.090Z,16.37
2018-01-10T19:29:14.551Z,22.90
2018-01-10T19:31:44.632Z,15.07
2018-01-10T19:34:14.146Z,24.63
2018-01-10T19:36:43.691Z,22.73
2018-01-10T19:39:13.138Z,26.50
2018-01-10T19:41:42.428Z,21.87
2018-01-10T19:44:12.898Z,17.30
2018-01-10T19:46:42.429Z,32.90
2018-01-10T19:49:11.774Z,20.13
2018-01-10T19:51:41.500Z,20.67
2018-01-10T19:54:11.664Z,17.80
2018-01-10T19:56:45.601Z,23.00
2018-01-10T19:59:15.792Z,16.57
2018-01-10T20:01:45.761Z,19.60
2018-01-10T20:04:15.139Z,18.60
2018-01-10T20:06:44.844Z,23.90
2018-01-10T20:09:14.198Z,18.90
2018-01-10T20:11:44.351Z,14.97
2018-01-10T20:14:13.627Z,14.33
2018-01-10T20:16:43.276Z,15.87
2018-01-10T20:19:13.313Z,22.33
2018-01-10T20:21:42.603Z,21.53
2018-01-10T20:24:11.923Z,22.70
2018-01-10T20:26:41.392Z,15.97
2018-01-10T20:29:10.814Z,18.27
2018-01-10T20:31:40.875Z,15.27
2018-01-10T20:34:11.061Z,14.90
2018-01-10T20:36:40.543Z,21.80
2018-01-10T20:39:10.155Z,19.03
2018-01-10T20:41:39.651Z,13.33
2018-01-10T20:44:09.727Z,17.13
2018-01-10T20:46:40.523Z,14.00
2018-01-10T20:49:09.960Z,18.43
2018-01-10T20:51:39.395Z,13.90
2018-01-10T20:54:09.024Z,15.43
2018-01-10T20:56:38.359Z,23.50
2018-01-10T20:59:07.736Z,19.47
2018-01-10T21:01:37.018Z,17.00
2018-01-10T21:04:07.119Z,27.40
2018-01-10T21:06:36.846Z,24.23
2018-01-10T21:09:06.939Z,22.07
2018-01-10T21:11:36.257Z,25.67
2018-01-10T21:14:06.318Z,30.40
2018-01-10T21:16:35.579Z,23.97
2018-01-10T21:19:05.622Z,24.50
2018-01-10T21:21:35.129Z,14.37
2018-01-10T21:24:05.058Z,16.03
2018-01-10T21:26:35.250Z,19.27
2018-01-10T21:29:04.530Z,16.30
2018-01-10T21:31:34.683Z,13.97
2018-01-10T21:34:04.389Z,10.10
2018-01-10T21:36:34.496Z,8.40
2018-01-10T21:39:03.854Z,10.83
2018-01-10T21:41:33.151Z,10.90
2018-01-10T21:44:02.569Z,13.10
2018-01-10T21:46:31.841Z,19.33
2018-01-10T21:49:01.269Z,15.23
2018-01-10T21:51:30.663Z,8.30
2018-01-10T21:54:00.347Z,12.47
2018-01-10T21:56:29.902Z,9.10
2018-01-10T21:58:59.402Z,9.93
2018-01-10T22:01:28.715Z,10.23
2018-01-10T22:03:59.237Z,13.33
2018-01-10T22:06:29.513Z,9.93
2018-01-10T22:08:59.589Z,10.20
2018-01-10T22:11:28.952Z,10.77
2018-01-10T22:13:58.280Z,15.63
2018-01-10T22:16:27.645Z,10.57
2018-01-10T22:18:56.944Z,10.00
2018-01-10T22:21:26.474Z,11.23
2018-01-10T22:23:55.903Z,11.87
2018-01-10T22:26:25.971Z,14.97
2018-01-10T22:28:55.584Z,11.27
2018-01-10T22:31:24.961Z,14.57
2018-01-10T22:33:54.248Z,12.10
2018-01-10T22:36:24.291Z,14.47
2018-01-10T22:38:53.749Z,12.30
2018-01-10T22:41:23.102Z,12.10
2018-01-10T22:43:52.389Z,8.73
2018-01-10T22:46:21.667Z,12.37
2018-01-10T22:48:51.753Z,10.97
2018-01-10T22:51:21.313Z,7.93
2018-01-10T22:53:50.763Z,11.00
2018-01-10T22:56:20.334Z,15.73
2018-01-10T22:58:50.710Z,10.67
2018-01-10T23:01:20.228Z,16.20
2018-01-10T23:03:51.330Z,10.43
2018-01-10T23:06:21.950Z,7.87
2018-01-10T23:08:51.403Z,10.67
2018-01-10T23:11:21.544Z,7.63
2018-01-10T23:13:51.612Z,7.53
